createdAt,value
2022-11-29T00:02:18.671Z,90.29
2022-11-29T00:04:49.519Z,89.80
2022-11-29T00:07:18.602Z,89.54
2022-11-29T00:09:47.907Z,89.65
2022-11-29T00:12:17.799Z,90.49
2022-11-29T00:14:47.335Z,90.36
2022-11-29T00:17:16.598Z,89.90
2022-11-29T00:19:46.180Z,89.71
2022-11-29T00:22:16.733Z,89.93
2022-11-29T00:24:46.285Z,90.43
2022-11-29T00:27:15.564Z,90.17
2022-11-29T00:29:44.933Z,90.41
2022-11-29T00:32:13.958Z,89.59
2022-11-29T00:34:43.546Z,89.04
2022-11-29T00:37:12.911Z,89.45
2022-11-29T00:39:43.685Z,90.36
2022-11-29T00:42:12.682Z,89.71
2022-11-29T00:44:42.281Z,90.15
2022-11-29T00:47:11.843Z,89.40
2022-11-29T00:49:42.028Z,89.36
2022-11-29T00:52:11.118Z,89.20
2022-11-29T00:54:42.228Z,88.96
2022-11-29T00:57:11.604Z,89.82
2022-11-29T00:59:41.000Z,89.90
2022-11-29T01:02:10.299Z,89.97
2022-11-29T01:04:39.696Z,89.60
2022-11-29T01:07:08.721Z,88.70
2022-11-29T01:09:38.039Z,88.42
2022-11-29T01:12:09.050Z,88.32
2022-11-29T01:14:38.381Z,88.76
2022-11-29T01:17:07.551Z,88.85
2022-11-29T01:19:39.645Z,88.40
2022-11-29T01:22:08.887Z,87.92
2022-11-29T01:24:38.236Z,88.40
2022-11-29T01:27:08.680Z,88.86
2022-11-29T01:29:38.143Z,87.58
2022-11-29T01:32:07.365Z,87.51
2022-11-29T01:34:36.627Z,87.46
2022-11-29T01:37:05.878Z,87.08
2022-11-29T01:39:35.277Z,87.70
2022-11-29T01:42:04.680Z,87.45
2022-11-29T01:45:14.996Z,87.91
2022-11-29T01:47:47.646Z,87.71
2022-11-29T01:50:17.536Z,87.70
2022-11-29T01:52:48.563Z,87.48
2022-11-29T01:55:18.801Z,87.58
2022-11-29T01:57:48.166Z,87.81
2022-11-29T02:00:21.912Z,87.21
2022-11-29T02:02:56.195Z,86.91
2022-11-29T02:05:26.458Z,86.65
2022-11-29T02:08:00.109Z,87.79
2022-11-29T02:10:45.819Z,86.96
2022-11-29T02:13:26.383Z,86.62
2022-11-29T02:16:04.492Z,86.55
2022-11-29T02:18:44.840Z,87.06
2022-11-29T02:21:32.608Z,87.62
2022-11-29T02:24:46.761Z,86.90
2022-11-29T02:27:51.090Z,86.27
2022-11-29T02:30:38.493Z,87.11
2022-11-29T02:33:29.480Z,86.79
2022-11-29T02:36:44.037Z,86.40
2022-11-29T02:39:48.065Z,86.97
2022-11-29T02:42:54.087Z,86.86
2022-11-29T02:45:40.415Z,86.57
2022-11-29T02:48:22.099Z,86.70
2022-11-29T02:50:58.821Z,86.05
2022-11-29T02:53:35.055Z,85.57
2022-11-29T02:56:13.356Z,84.42
2022-11-29T02:58:49.392Z,84.79
2022-11-29T03:01:25.699Z,84.67
2022-11-29T03:04:03.728Z,84.74
2022-11-29T03:06:40.789Z,84.67
2022-11-29T03:09:18.989Z,84.84
2022-11-29T03:11:55.560Z,83.92
2022-11-29T03:14:27.871Z,83.60
2022-11-29T03:17:06.280Z,83.98
2022-11-29T03:20:01.234Z,83.57
2022-11-29T03:22:43.079Z,83.54
2022-11-29T03:25:19.076Z,83.73
2022-11-29T03:27:54.519Z,83.98
2022-11-29T03:35:35.855Z,83.58
2022-11-29T03:38:22.079Z,83.70
2022-11-29T03:40:58.714Z,83.42
2022-11-29T03:43:34.857Z,83.13
2022-11-29T03:46:07.200Z,83.36
2022-11-29T03:48:42.066Z,83.11
2022-11-29T03:51:19.921Z,84.03
2022-11-29T03:53:59.562Z,83.10
2022-11-29T03:56:31.941Z,82.89
2022-11-29T03:59:22.888Z,82.21
2022-11-29T04:02:27.302Z,82.66
2022-11-29T04:05:25.124Z,82.43
2022-11-29T04:08:21.967Z,82.65
2022-11-29T04:11:28.660Z,82.93
2022-11-29T04:14:28.626Z,82.98
2022-11-29T04:17:38.544Z,82.14
2022-11-29T04:20:58.746Z,82.13
2022-11-29T04:23:56.721Z,82.04
2022-11-29T04:26:55.898Z,82.14
2022-11-29T04:29:56.452Z,81.90
2022-11-29T04:32:50.064Z,81.93
2022-11-29T04:35:39.734Z,80.79
2022-11-29T04:38:46.195Z,80.64
2022-11-29T04:41:55.632Z,80.83
2022-11-29T04:44:43.353Z,81.09
2022-11-29T04:47:38.464Z,81.84
2022-11-29T04:50:19.915Z,81.19
2022-11-29T04:53:05.704Z,82.13
2022-11-29T04:55:44.995Z,81.20
2022-11-29T04:58:23.881Z,81.23
2022-11-29T05:01:11.032Z,81.08
2022-11-29T05:03:46.886Z,81.13
2022-11-29T05:06:27.057Z,81.96
2022-11-29T05:09:09.171Z,81.58
2022-11-29T05:11:51.287Z,80.80
2022-11-29T05:14:36.201Z,82.56
2022-11-29T05:17:25.866Z,82.76
2022-11-29T05:20:10.522Z,82.87
2022-11-29T05:22:50.122Z,81.73
2022-11-29T05:25:41.250Z,81.96
2022-11-29T05:28:21.369Z,82.39
2022-11-29T05:31:28.881Z,81.96
2022-11-29T05:34:37.341Z,82.57
2022-11-29T05:37:16.375Z,81.74
2022-11-29T05:39:58.795Z,82.04
2022-11-29T05:42:57.509Z,81.69
2022-11-29T05:45:31.047Z,82.40
2022-11-29T05:48:08.357Z,81.34
2022-11-29T05:50:43.023Z,82.09
2022-11-29T05:53:22.933Z,82.84
2022-11-29T05:56:03.764Z,82.12
2022-11-29T05:58:44.470Z,81.76
2022-11-29T06:01:22.243Z,82.22
2022-11-29T06:04:02.966Z,81.96
2022-11-29T06:06:40.467Z,81.43
2022-11-29T06:09:18.997Z,82.22
2022-11-29T06:11:51.588Z,82.24
2022-11-29T06:14:36.957Z,82.24
2022-11-29T06:17:38.985Z,81.93
2022-11-29T06:20:39.896Z,82.97
2022-11-29T06:23:25.283Z,83.01
2022-11-29T06:26:07.291Z,82.67
2022-11-29T06:28:56.229Z,83.17
2022-11-29T06:31:30.226Z,83.18
2022-11-29T06:34:08.659Z,82.75
2022-11-29T06:36:46.140Z,83.22
2022-11-29T06:39:15.931Z,83.04
2022-11-29T06:41:47.036Z,82.65
2022-11-29T06:44:16.800Z,82.46
2022-11-29T06:46:48.939Z,83.44
2022-11-29T06:49:25.077Z,82.99
2022-11-29T06:52:08.212Z,82.35
2022-11-29T06:54:51.196Z,82.49
2022-11-29T06:57:31.659Z,81.77
2022-11-29T07:00:11.711Z,82.59
2022-11-29T07:03:07.751Z,82.03
2022-11-29T07:05:37.650Z,82.63
2022-11-29T07:08:15.038Z,82.38
2022-11-29T07:10:45.274Z,82.21
2022-11-29T07:13:15.502Z,81.86
2022-11-29T07:15:49.890Z,82.36
2022-11-29T07:18:29.133Z,82.86
2022-11-29T07:21:07.977Z,82.62
2022-11-29T07:23:45.251Z,82.09
2022-11-29T07:26:26.251Z,81.43
2022-11-29T07:29:12.374Z,82.34
2022-11-29T07:31:50.807Z,81.96
2022-11-29T07:34:29.772Z,82.15
2022-11-29T07:37:05.977Z,82.77
2022-11-29T07:39:46.201Z,82.22
2022-11-29T07:42:24.475Z,82.19
2022-11-29T07:45:03.088Z,82.69
2022-11-29T07:47:35.696Z,83.04
2022-11-29T07:50:06.192Z,83.69
2022-11-29T07:52:35.618Z,83.49
2022-11-29T07:55:07.287Z,82.30
2022-11-29T07:57:36.990Z,82.36
2022-11-29T08:05:05.114Z,82.61
2022-11-29T08:07:36.909Z,82.82
2022-11-29T08:10:10.561Z,82.93
2022-11-29T08:12:44.911Z,83.20
2022-11-29T08:15:14.514Z,82.84
2022-11-29T08:17:43.777Z,82.55
2022-11-29T08:20:14.929Z,83.26
2022-11-29T08:22:45.037Z,82.72
2022-11-29T08:25:16.296Z,82.06
2022-11-29T08:27:45.369Z,82.12
2022-11-29T08:30:15.199Z,81.56
2022-11-29T08:32:48.526Z,82.65
2022-11-29T08:35:22.168Z,82.09
2022-11-29T08:37:52.144Z,82.08
2022-11-29T08:40:24.202Z,81.90
2022-11-29T08:42:53.653Z,82.46
2022-11-29T08:45:23.199Z,81.38
2022-11-29T08:47:52.481Z,81.03
2022-11-29T08:50:22.577Z,81.40
2022-11-29T08:53:09.836Z,81.26
2022-11-29T08:55:43.072Z,80.90
2022-11-29T08:58:15.428Z,81.90
2022-11-29T09:00:47.178Z,82.51
2022-11-29T09:03:34.027Z,82.32
2022-11-29T09:06:12.020Z,82.79
2022-11-29T09:08:43.611Z,81.97
2022-11-29T09:11:16.034Z,81.16
2022-11-29T09:13:47.571Z,81.00
2022-11-29T09:16:19.070Z,81.83
2022-11-29T09:18:51.830Z,82.76
2022-11-29T09:21:21.958Z,82.74
2022-11-29T09:23:57.749Z,83.20
2022-11-29T09:26:30.096Z,81.86
2022-11-29T09:29:01.381Z,81.65
2022-11-29T09:31:32.115Z,81.95
2022-11-29T09:34:01.745Z,83.15
2022-11-29T09:36:32.108Z,81.92
2022-11-29T09:39:03.361Z,81.70
2022-11-29T09:41:58.405Z,81.58
2022-11-29T09:44:36.041Z,81.17
2022-11-29T09:47:18.412Z,80.74
2022-11-29T09:49:57.683Z,81.84
2022-11-29T09:52:37.740Z,81.43
2022-11-29T09:55:23.970Z,80.83
2022-11-29T09:57:56.344Z,81.56
2022-11-29T10:00:26.123Z,81.65
2022-11-29T10:02:59.638Z,81.52
2022-11-29T10:05:33.763Z,81.35
2022-11-29T10:08:09.610Z,80.86
2022-11-29T10:10:43.281Z,81.85
2022-11-29T10:13:21.398Z,81.26
2022-11-29T10:15:55.519Z,81.09
2022-11-29T10:18:27.256Z,81.16
2022-11-29T10:21:04.168Z,81.10
2022-11-29T10:23:37.460Z,81.32
2022-11-29T10:26:08.157Z,81.30
2022-11-29T10:28:44.939Z,81.64
2022-11-29T10:31:21.316Z,82.17
2022-11-29T10:33:51.712Z,81.57
2022-11-29T10:36:27.791Z,81.90
2022-11-29T10:39:00.656Z,81.52
2022-11-29T10:41:29.956Z,80.62
2022-11-29T10:44:02.344Z,81.26
2022-11-29T10:46:34.224Z,81.19
2022-11-29T10:49:06.209Z,80.76
2022-11-29T10:51:35.962Z,81.18
2022-11-29T10:54:21.625Z,80.66
2022-11-29T10:56:50.996Z,80.14
2022-11-29T10:59:27.155Z,80.23
2022-11-29T11:01:56.880Z,80.53
2022-11-29T11:04:32.474Z,81.70
2022-11-29T11:07:03.549Z,81.63
2022-11-29T11:09:39.179Z,81.14
2022-11-29T11:12:19.906Z,81.68
2022-11-29T11:14:51.481Z,80.97
2022-11-29T11:17:27.100Z,80.29
2022-11-29T11:19:58.132Z,80.24
2022-11-29T11:22:28.876Z,79.92
2022-11-29T11:25:01.183Z,79.76
2022-11-29T11:27:32.621Z,79.95
2022-11-29T11:30:07.555Z,80.62
2022-11-29T11:32:36.759Z,81.22
2022-11-29T11:35:24.226Z,81.14
2022-11-29T11:37:58.407Z,80.52
2022-11-29T11:40:30.842Z,80.44
2022-11-29T11:43:03.035Z,81.57
2022-11-29T11:45:38.794Z,81.20
2022-11-29T11:48:15.330Z,81.51
2022-11-29T11:50:46.765Z,81.24
2022-11-29T11:53:23.143Z,81.11
2022-11-29T11:56:00.125Z,80.59
2022-11-29T11:58:30.964Z,80.30
2022-11-29T12:01:17.299Z,80.41
2022-11-29T12:03:53.178Z,81.41
2022-11-29T12:06:30.031Z,81.76
2022-11-29T12:09:05.852Z,82.27
2022-11-29T12:11:42.663Z,81.07
2022-11-29T12:14:23.443Z,80.88
2022-11-29T12:17:05.201Z,81.25
2022-11-29T12:19:41.417Z,81.02
2022-11-29T12:22:19.963Z,80.89
2022-11-29T12:24:58.310Z,80.47
2022-11-29T12:27:27.951Z,81.30
2022-11-29T12:29:57.544Z,80.74
2022-11-29T12:32:51.264Z,80.55
2022-11-29T12:35:48.332Z,80.46
2022-11-29T12:38:36.408Z,81.49
2022-11-29T12:41:19.509Z,81.92
2022-11-29T12:44:04.101Z,81.52
2022-11-29T12:46:35.433Z,81.83
2022-11-29T12:49:17.692Z,82.42
2022-11-29T12:51:54.689Z,81.45
2022-11-29T12:54:44.191Z,80.90
2022-11-29T12:57:22.487Z,80.52
2022-11-29T13:00:08.025Z,80.81
2022-11-29T13:02:53.608Z,80.78
2022-11-29T13:05:42.627Z,80.64
2022-11-29T13:08:34.221Z,80.38
2022-11-29T13:11:15.414Z,80.68
2022-11-29T13:13:47.760Z,81.58
2022-11-29T13:16:31.973Z,81.22
2022-11-29T13:19:08.150Z,81.07
2022-11-29T13:21:47.525Z,81.33
2022-11-29T13:24:25.130Z,80.81
2022-11-29T13:26:55.477Z,81.04
2022-11-29T13:29:25.354Z,80.63
2022-11-29T13:31:55.022Z,80.88
2022-11-29T13:34:30.223Z,80.30
2022-11-29T13:37:08.837Z,80.84
2022-11-29T13:39:52.030Z,80.80
2022-11-29T13:42:27.086Z,80.96
2022-11-29T13:45:05.532Z,81.37
2022-11-29T13:47:48.491Z,81.50
2022-11-29T13:50:42.226Z,81.52
2022-11-29T13:53:18.660Z,81.70
2022-11-29T13:55:50.056Z,81.75
2022-11-29T13:58:36.369Z,81.74
2022-11-29T14:01:09.358Z,81.67
2022-11-29T14:03:41.606Z,80.96
2022-11-29T14:06:18.469Z,81.54
2022-11-29T14:09:24.810Z,82.36
2022-11-29T14:12:01.489Z,81.20
2022-11-29T14:14:35.942Z,81.73
2022-11-29T14:17:07.176Z,81.21
2022-11-29T14:19:38.207Z,81.45
2022-11-29T14:22:22.924Z,81.21
2022-11-29T14:25:16.349Z,81.73
2022-11-29T14:28:25.126Z,81.50
2022-11-29T14:30:57.117Z,82.19
2022-11-29T14:33:45.249Z,81.95
2022-11-29T14:36:34.360Z,81.36
2022-11-29T14:39:25.220Z,80.72
2022-11-29T14:42:04.875Z,81.12
2022-11-29T14:44:35.510Z,81.72
2022-11-29T14:47:08.281Z,81.86
2022-11-29T14:49:43.620Z,82.25
2022-11-29T14:52:22.707Z,82.36
2022-11-29T14:55:01.110Z,82.66
2022-11-29T14:58:13.055Z,82.46
2022-11-29T15:01:09.740Z,82.82
2022-11-29T15:03:47.541Z,82.47
2022-11-29T15:06:26.019Z,82.21
2022-11-29T15:09:04.755Z,82.88
2022-11-29T15:11:51.019Z,82.80
2022-11-29T15:14:30.461Z,82.39
2022-11-29T15:17:18.281Z,82.37
2022-11-29T15:20:15.971Z,82.35
2022-11-29T15:22:52.351Z,82.05
2022-11-29T15:25:23.703Z,82.25
2022-11-29T15:27:54.590Z,82.32
2022-11-29T15:30:32.047Z,81.98
2022-11-29T15:33:06.548Z,82.18
2022-11-29T15:35:37.573Z,81.63
2022-11-29T15:38:06.565Z,81.61
2022-11-29T15:40:37.287Z,81.84
2022-11-29T15:43:17.993Z,81.54
2022-11-29T15:45:52.256Z,81.87
2022-11-29T15:48:24.544Z,82.16
2022-11-29T15:51:06.103Z,82.06
2022-11-29T15:53:40.873Z,82.55
2022-11-29T15:56:16.036Z,82.22
2022-11-29T15:58:46.962Z,82.24
2022-11-29T16:01:21.609Z,82.48
2022-11-29T16:03:54.659Z,80.99
2022-11-29T16:06:30.566Z,81.90
2022-11-29T16:09:00.701Z,81.68
2022-11-29T16:11:32.898Z,81.37
2022-11-29T16:14:14.077Z,81.48
2022-11-29T16:16:46.137Z,81.08
2022-11-29T16:19:27.022Z,81.31
2022-11-29T16:22:09.537Z,81.67
2022-11-29T16:24:40.010Z,81.75
2022-11-29T16:27:09.929Z,82.10
2022-11-29T16:29:46.375Z,82.08
2022-11-29T16:32:26.108Z,81.77
2022-11-29T16:34:58.798Z,81.75
2022-11-29T16:37:32.638Z,81.84
2022-11-29T16:40:03.117Z,81.34
2022-11-29T16:42:34.477Z,81.15
2022-11-29T16:45:27.057Z,81.18
2022-11-29T16:47:59.678Z,82.15
2022-11-29T16:50:31.383Z,81.49
2022-11-29T16:53:34.987Z,81.19
2022-11-29T16:56:04.391Z,80.81
2022-11-29T16:58:38.759Z,81.13
2022-11-29T17:01:18.389Z,81.51
2022-11-29T17:03:47.963Z,81.51
2022-11-29T17:06:21.259Z,81.41
2022-11-29T17:08:51.974Z,81.22
2022-11-29T17:11:21.131Z,82.33
2022-11-29T17:13:51.238Z,82.00
2022-11-29T17:16:22.210Z,82.07
2022-11-29T17:18:52.873Z,82.00
2022-11-29T17:21:25.751Z,81.45
2022-11-29T17:23:55.588Z,81.66
2022-11-29T17:26:25.432Z,81.86
2022-11-29T17:28:55.452Z,82.40
2022-11-29T17:31:25.621Z,82.12
2022-11-29T17:33:55.079Z,82.23
2022-11-29T17:36:25.500Z,82.14
2022-11-29T17:38:54.978Z,82.49
2022-11-29T17:41:26.068Z,82.07
2022-11-29T17:43:57.193Z,82.44
2022-11-29T17:46:27.891Z,82.87
2022-11-29T17:48:59.760Z,82.72
2022-11-29T17:54:20.957Z,83.50
2022-11-29T17:56:51.993Z,83.70
2022-11-29T17:59:21.454Z,83.75
2022-11-29T18:01:50.594Z,83.50
2022-11-29T18:04:20.213Z,83.35
2022-11-29T18:06:50.866Z,83.38
2022-11-29T18:09:20.653Z,83.34
2022-11-29T18:11:50.924Z,83.57
2022-11-29T18:14:23.951Z,82.86
2022-11-29T18:16:53.560Z,83.77
2022-11-29T18:19:24.572Z,83.75
2022-11-29T18:21:55.127Z,83.24
2022-11-29T18:24:24.491Z,83.20
2022-11-29T18:26:53.865Z,83.87
2022-11-29T18:29:23.929Z,83.98
2022-11-29T18:31:53.002Z,83.74
2022-11-29T18:34:22.472Z,83.77
2022-11-29T18:36:51.663Z,83.31
2022-11-29T18:39:24.984Z,83.88
2022-11-29T18:41:54.126Z,83.73
2022-11-29T18:44:29.127Z,83.65
2022-11-29T18:46:58.785Z,83.53
2022-11-29T18:49:28.207Z,83.05
2022-11-29T18:51:57.259Z,83.73
2022-11-29T18:54:29.262Z,83.09
2022-11-29T18:56:58.371Z,83.34
2022-11-29T18:59:27.662Z,82.83
2022-11-29T19:01:56.954Z,82.80
2022-11-29T19:04:26.326Z,82.84
2022-11-29T19:06:55.512Z,82.75
2022-11-29T19:09:25.394Z,82.76
2022-11-29T19:11:57.036Z,82.40
2022-11-29T19:14:26.546Z,82.85
2022-11-29T19:16:55.743Z,82.32
2022-11-29T19:19:25.098Z,82.38
2022-11-29T19:21:54.115Z,82.34
2022-11-29T19:24:23.536Z,82.84
2022-11-29T19:26:55.945Z,82.93
2022-11-29T19:29:25.415Z,82.76
2022-11-29T19:31:54.619Z,82.71
2022-11-29T19:34:23.930Z,82.34
2022-11-29T19:36:53.028Z,81.65
2022-11-29T19:39:22.355Z,81.36
2022-11-29T19:41:51.500Z,81.53
2022-11-29T19:44:27.981Z,81.17
2022-11-29T19:46:59.316Z,81.14
2022-11-29T19:49:28.761Z,80.94
2022-11-29T19:51:57.987Z,81.12
2022-11-29T19:54:27.417Z,80.84
2022-11-29T19:56:58.686Z,81.42
2022-11-29T19:59:29.420Z,80.57
2022-11-29T20:01:58.560Z,80.31
2022-11-29T20:04:28.032Z,80.22
2022-11-29T20:06:58.164Z,80.25
2022-11-29T20:09:29.313Z,80.45
2022-11-29T20:11:58.480Z,80.95
2022-11-29T20:14:29.304Z,80.59
2022-11-29T20:16:58.488Z,81.41
2022-11-29T20:19:27.949Z,81.14
2022-11-29T20:21:57.172Z,80.98
2022-11-29T20:24:26.696Z,80.90
2022-11-29T20:26:55.909Z,80.77
2022-11-29T20:29:30.432Z,80.25
2022-11-29T20:32:01.050Z,80.37
2022-11-29T20:34:30.731Z,80.60
2022-11-29T20:37:17.574Z,80.00
2022-11-29T20:39:52.434Z,79.56
2022-11-29T20:42:45.498Z,79.69
2022-11-29T20:45:16.360Z,79.90
2022-11-29T20:47:53.731Z,79.49
2022-11-29T20:50:25.116Z,80.28
2022-11-29T20:53:19.225Z,79.32
2022-11-29T20:55:50.079Z,79.83
2022-11-29T20:58:19.978Z,79.44
2022-11-29T21:00:49.357Z,79.76
2022-11-29T21:03:20.839Z,79.72
2022-11-29T21:05:51.134Z,80.20
2022-11-29T21:08:22.142Z,80.55
2022-11-29T21:10:51.905Z,80.23
2022-11-29T21:13:23.117Z,80.09
2022-11-29T21:15:53.043Z,79.63
2022-11-29T21:18:26.449Z,79.43
2022-11-29T21:21:06.212Z,79.60
2022-11-29T21:23:47.049Z,80.18
2022-11-29T21:26:21.718Z,80.54
2022-11-29T21:28:59.058Z,80.47
2022-11-29T21:31:29.033Z,80.55
2022-11-29T21:34:00.137Z,79.83
2022-11-29T21:36:30.007Z,79.49
2022-11-29T21:39:03.648Z,79.55
2022-11-29T21:41:34.786Z,79.65
2022-11-29T21:44:07.056Z,79.85
2022-11-29T21:46:37.810Z,79.59
2022-11-29T21:49:08.353Z,80.17
2022-11-29T21:51:37.729Z,80.03
2022-11-29T21:54:06.974Z,79.82
2022-11-29T21:56:36.430Z,79.14
2022-11-29T21:59:05.820Z,79.48
2022-11-29T22:01:35.316Z,79.74
2022-11-29T22:04:04.614Z,80.01
2022-11-29T22:06:36.851Z,79.53
2022-11-29T22:09:07.803Z,79.83
2022-11-29T22:11:37.171Z,79.89
2022-11-29T22:14:15.171Z,79.49
2022-11-29T22:16:46.715Z,79.89
2022-11-29T22:19:17.839Z,79.58
2022-11-29T22:21:51.054Z,79.28
2022-11-29T22:24:21.978Z,79.70
2022-11-29T22:26:52.467Z,79.68
2022-11-29T22:29:22.393Z,80.23
2022-11-29T22:31:53.975Z,79.47
2022-11-29T22:34:25.112Z,79.48
2022-11-29T22:36:56.694Z,79.10
2022-11-29T22:39:26.100Z,79.81
2022-11-29T22:41:55.536Z,79.89
2022-11-29T22:44:24.646Z,79.49
2022-11-29T22:46:54.156Z,79.67
2022-11-29T22:49:23.377Z,79.74
2022-11-29T22:51:53.463Z,79.85
2022-11-29T22:54:24.073Z,79.96
2022-11-29T22:56:53.517Z,79.76
2022-11-29T22:59:22.511Z,79.66
2022-11-29T23:01:52.070Z,79.97
2022-11-29T23:04:21.214Z,79.72
2022-11-29T23:06:50.644Z,79.14
2022-11-29T23:09:22.424Z,79.48
2022-11-29T23:11:56.899Z,79.76
2022-11-29T23:14:26.020Z,79.55
2022-11-29T23:16:55.482Z,79.29
2022-11-29T23:19:24.601Z,79.13
2022-11-29T23:21:56.234Z,79.29
2022-11-29T23:24:25.445Z,79.38
2022-11-29T23:26:56.306Z,79.64
2022-11-29T23:29:25.348Z,79.66
2022-11-29T23:31:54.688Z,79.34
2022-11-29T23:34:23.796Z,79.17
2022-11-29T23:36:53.428Z,79.79
2022-11-29T23:39:22.775Z,79.06
2022-11-29T23:41:52.203Z,79.57
2022-11-29T23:44:22.543Z,80.04
2022-11-29T23:46:51.888Z,79.77
2022-11-29T23:49:21.019Z,79.20
2022-11-29T23:51:50.421Z,79.68
2022-11-29T23:54:19.605Z,79.41
2022-11-29T23:56:48.912Z,79.75
2022-11-29T23:59:17.994Z,79.98
